Airfield :
LOGIN :

Register | Disclaimer

   EN    FR    IT 

 










Legend :    VFR   Marginal VFR   IFR   Intensive IFR   Very Intensive IFR
Visi :
Ceiling :
>= 8 km
>= 3000ft
5 to 8 km
1000 to 3000 ft
1500m to 5 km
500 to 1000 ft
800 to 1500m
200 to 500 ft
< 800m
< 200 ft
Symbols :   Thunderstorms  Fog  Heavy snow  Heavy precipitations  Wind > 20 kt
SIGMETs :     Misc.  Thunderstorms  Icing  Turbulence  Mountain Waves  Volcanic Ashes






- Airport Elevation : 1768 ft


LEHC - Huesca Pirineos

CURRENT METAR :
  • 132300Z AUTO 09007KT 060V120 9999 NCD 17/15 Q1017

EXPIRED METARs :
  • 132230Z AUTO 08009KT 9999 NCD 18/15 Q1017
  • 132200Z AUTO 09012KT 9999 NCD 18/15 Q1017
  • 132130Z AUTO 08011KT 9999 NCD 18/15 Q1017
  • 132100Z AUTO 08011KT 9999 NCD 18/15 Q1017
  • 132030Z AUTO 09012KT 060V120 9999 NCD 18/15 Q1017

TAF TAF LEHC
Valid from the 13 at 15:00 until the 14 at 15:00 UTC


131400Z 1315/1415 12012KT 9999 FEW030 TX20/1414Z TN12/1406Z
PROB40
TEMPO 1409/1415 09015G25KT 4000 TSRA SCT030CB BKN035



MET'MAP, your aeronautical weather chart ! - Copyright ORBIFLY December 2007 - Disclaimer

ORBIFLY MET'MAP TEAM :

Programming & Development : Alexandra Zaïnal
Concept & Development : Baudouin d'Aumeries
Co-Development & Prog : Marc-Olivier Méhu
Technical & hardware support : Manuel Goepfert

Contact : metmap@orbifly.com




SOURCES & CREDITS :

   NOAA